Time;durP1;ratioP1;P1;durP2;ratioP2;P2;SDS_P1;SDS_P2;PMS_P1;PMS_P2;Temp;Humidity;BMP_temperature;BMP_pressure;BME280_temperature;BME280_humidity;BME280_pressure;Samples;Min_cycle;Max_cycle;Signal;HPM_P1;HPM_P2
2022/03/03 00:01:35;;;;;;;7.05;3.58;;;;;;;4.52;54.64;102115.19;5034694;27;101112;-35
2022/03/03 00:04:00;;;;;;;9.43;3.97;;;;;;;4.51;54.43;102128.66;5035674;27;97759;-35
2022/03/03 00:06:25;;;;;;;8.75;4.35;;;;;;;4.43;54.51;102131.44;5052566;27;106975;-34
2022/03/03 00:08:51;;;;;;;4.63;3.08;;;;;;;4.31;54.27;102115.53;5053890;27;96848;-34
2022/03/03 00:11:16;;;;;;;8.73;3.35;;;;;;;4.38;54.48;102135.97;5053506;27;99170;-35
2022/03/03 00:13:41;;;;;;;5.10;3.03;;;;;;;4.33;53.87;102129.81;5053704;27;99064;-35
2022/03/03 00:16:08;;;;;;;12.27;5.13;;;;;;;4.37;54.84;102128.84;5053180;27;114802;-35
2022/03/03 00:18:33;;;;;;;4.45;2.53;;;;;;;4.31;54.80;102115.53;5054242;27;96449;-34
2022/03/03 00:20:58;;;;;;;6.75;4.07;;;;;;;4.33;54.76;102124.44;5053069;27;98078;-35
2022/03/03 00:23:24;;;;;;;10.23;4.55;;;;;;;4.39;54.97;102130.59;5053320;27;97916;-35
2022/03/03 00:25:49;;;;;;;9.40;3.92;;;;;;;4.31;54.68;102128.94;5052572;27;112181;-34
2022/03/03 00:28:14;;;;;;;7.85;3.35;;;;;;;4.32;54.70;102128.06;5053439;27;96886;-34
2022/03/03 00:30:40;;;;;;;9.25;4.38;;;;;;;4.22;54.85;102114.78;5053220;27;96963;-35
2022/03/03 00:33:05;;;;;;;6.05;3.35;;;;;;;4.22;54.84;102116.56;5052658;27;122847;-34
2022/03/03 00:35:30;;;;;;;9.05;4.90;;;;;;;4.23;54.60;102112.97;5053043;27;97849;-34
2022/03/03 00:37:56;;;;;;;6.03;3.55;;;;;;;4.26;54.35;102129.00;5053420;27;96795;-34
2022/03/03 00:40:21;;;;;;;6.57;4.20;;;;;;;4.19;54.74;102117.47;5053193;27;98388;-35
2022/03/03 00:42:46;;;;;;;5.97;3.58;;;;;;;4.23;55.03;102119.22;5053262;27;100569;-35
2022/03/03 00:45:11;;;;;;;9.13;4.60;;;;;;;4.17;54.84;102115.72;5052570;27;118019;-35
2022/03/03 00:47:37;;;;;;;6.97;3.55;;;;;;;4.18;54.60;102109.47;5052244;27;121174;-35
2022/03/03 00:50:03;;;;;;;11.50;4.90;;;;;;;4.18;54.74;102125.56;5052418;27;99211;-35
2022/03/03 00:52:28;;;;;;;8.35;3.85;;;;;;;4.16;54.52;102119.31;5034398;27;101026;-35
2022/03/03 00:54:54;;;;;;;7.78;2.63;;;;;;;4.12;54.72;102129.19;5053125;27;96479;-35
2022/03/03 00:57:19;;;;;;;5.72;2.88;;;;;;;4.06;54.53;102115.00;5033791;27;124018;-35
2022/03/03 00:59:44;;;;;;;4.68;3.17;;;;;;;3.98;54.23;102117.78;5053030;27;98029;-35
2022/03/03 01:02:09;;;;;;;8.77;4.65;;;;;;;3.98;54.52;102117.78;5051597;27;126558;-35
2022/03/03 01:04:35;;;;;;;7.13;3.88;;;;;;;3.86;54.09;102113.47;5053129;27;96839;-35
2022/03/03 01:07:00;;;;;;;3.88;2.92;;;;;;;3.90;54.65;102115.22;5038205;27;115754;-35
2022/03/03 01:09:25;;;;;;;5.90;3.53;;;;;;;3.92;54.59;102118.75;5032613;28;97884;-34
2022/03/03 01:11:51;;;;;;;5.43;2.45;;;;;;;3.84;54.67;102109.94;5031934;28;113587;-35
2022/03/03 01:14:21;;;;;;;15.13;4.43;;;;;;;3.88;54.86;102110.78;5032097;28;96599;-35
2022/03/03 01:16:47;;;;;;;4.28;2.58;;;;;;;3.81;54.14;102108.19;5014409;28;96673;-35
2022/03/03 01:19:12;;;;;;;6.93;3.58;;;;;;;3.79;54.57;102093.94;5014073;28;100853;-35
2022/03/03 01:21:38;;;;;;;6.88;4.20;;;;;;;3.83;54.80;102084.91;5032331;28;98639;-35
2022/03/03 01:24:03;;;;;;;9.27;3.00;;;;;;;3.82;55.33;102083.16;5032677;28;96600;-35
2022/03/03 01:26:29;;;;;;;14.15;4.68;;;;;;;3.91;55.00;102095.56;5032443;28;96795;-35
2022/03/03 01:28:54;;;;;;;8.63;4.30;;;;;;;3.86;54.85;102086.66;5031332;28;116854;-34
2022/03/03 01:31:19;;;;;;;5.88;3.17;;;;;;;3.84;55.04;102088.50;5031838;28;117807;-35
2022/03/03 01:33:44;;;;;;;4.18;2.45;;;;;;;3.81;55.17;102084.09;5030507;28;112230;-35
2022/03/03 01:36:10;;;;;;;7.75;3.53;;;;;;;3.76;55.06;102077.88;5031357;28;118132;-35
2022/03/03 01:38:35;;;;;;;10.40;3.28;;;;;;;3.83;55.26;102081.34;5031142;28;114144;-35
2022/03/03 01:41:00;;;;;;;12.82;4.10;;;;;;;3.79;55.22;102063.53;5032106;28;97881;-35
2022/03/03 01:43:26;;;;;;;6.22;2.60;;;;;;;3.75;55.12;102060.03;5013236;28;121407;-35
2022/03/03 01:45:51;;;;;;;3.85;2.83;;;;;;;3.73;55.41;102064.53;5013919;28;96671;-35
2022/03/03 01:48:16;;;;;;;4.57;2.70;;;;;;;3.76;55.48;102069.81;5013054;28;123993;-35
2022/03/03 01:50:42;;;;;;;8.52;3.15;;;;;;;3.67;55.68;102056.59;5030742;28;126745;-35
2022/03/03 01:53:07;;;;;;;4.03;2.47;;;;;;;3.55;55.46;102033.53;5032230;28;96545;-34
2022/03/03 01:55:33;;;;;;;8.00;3.50;;;;;;;3.61;55.30;102049.50;5032102;28;104320;-35
2022/03/03 01:58:01;;;;;;;6.57;3.97;;;;;;;3.60;55.83;102046.84;5031969;28;97939;-34
2022/03/03 02:00:27;;;;;;;5.57;2.38;;;;;;;3.59;55.92;102042.38;5013405;28;100827;-35
2022/03/03 02:02:52;;;;;;;6.53;3.60;;;;;;;3.62;55.83;102050.38;5030895;28;119731;-35
2022/03/03 02:05:17;;;;;;;6.65;3.25;;;;;;;3.60;55.82;102052.22;5031757;28;96733;-35
2022/03/03 02:07:42;;;;;;;8.27;4.43;;;;;;;3.53;55.67;102042.50;5050624;27;114489;-35
2022/03/03 02:10:08;;;;;;;6.22;3.05;;;;;;;3.50;55.79;102042.50;5051334;27;116399;-34
2022/03/03 02:12:34;;;;;;;11.45;3.60;;;;;;;3.44;56.40;102031.88;5051915;27;96495;-35
2022/03/03 02:14:59;;;;;;;7.70;3.97;;;;;;;3.52;56.55;102038.03;5052134;27;96765;-35
2022/03/03 02:17:24;;;;;;;6.70;3.05;;;;;;;3.44;56.48;102029.22;5052065;27;97427;-35
2022/03/03 02:19:50;;;;;;;4.97;2.45;;;;;;;3.42;56.27;102029.22;5033764;27;97902;-35
2022/03/03 02:22:15;;;;;;;7.50;3.22;;;;;;;3.45;56.59;102039.88;5051993;27;96551;-35
2022/03/03 02:24:41;;;;;;;7.18;3.58;;;;;;;3.40;56.39;102029.22;5052023;27;102931;-35
2022/03/03 02:27:15;;;;;;;4.65;2.95;;;;;;;3.46;56.64;102036.31;5051010;27;99250;-35
2022/03/03 02:29:41;;;;;;;4.93;3.75;;;;;;;3.38;56.70;102023.03;5051522;27;97861;-35
2022/03/03 02:32:07;;;;;;;5.82;3.10;;;;;;;3.34;56.70;102013.25;5050971;27;116974;-35
2022/03/03 02:34:34;;;;;;;6.05;2.97;;;;;;;3.28;56.39;102020.47;5033269;27;96990;-35
2022/03/03 02:36:59;;;;;;;6.50;2.55;;;;;;;3.30;56.58;102021.34;5033207;27;101448;-35
2022/03/03 02:39:25;;;;;;;5.05;3.15;;;;;;;3.25;56.71;102017.84;5051698;27;104138;-35
2022/03/03 02:41:50;;;;;;;10.38;4.00;;;;;;;3.15;57.07;102009.91;5051474;27;96549;-35
2022/03/03 02:44:16;;;;;;;5.32;2.67;;;;;;;3.15;56.73;102014.41;5034094;27;96777;-35
2022/03/03 02:46:47;;;;;;;3.20;2.35;;;;;;;3.13;57.54;102011.72;5055147;27;98028;-35
2022/03/03 02:49:13;;;;;;;7.03;4.10;;;;;;;3.14;57.58;102015.28;5054866;27;97895;-35
2022/03/03 02:51:38;;;;;;;3.80;2.33;;;;;;;3.13;57.68;102026.91;5036128;27;96668;-35
2022/03/03 02:54:04;;;;;;;4.97;3.08;;;;;;;3.14;57.37;102020.63;5055331;27;96742;-35
2022/03/03 02:56:29;;;;;;;7.97;3.60;;;;;;;3.10;57.64;102013.53;5054849;27;98090;-35
2022/03/03 02:58:54;;;;;;;7.15;2.80;;;;;;;3.09;57.91;102009.09;5054802;27;98279;-34
2022/03/03 03:01:20;;;;;;;14.52;3.30;;;;;;;3.13;57.77;102008.16;5054253;27;112615;-35
2022/03/03 03:03:45;;;;;;;10.95;5.53;;;;;;;3.06;57.74;101999.31;5054523;27;96870;-35
2022/03/03 03:06:14;;;;;;;7.10;4.30;;;;;;;3.08;58.36;102005.53;5046725;27;117760;-35
2022/03/03 03:08:40;;;;;;;3.58;2.75;;;;;;;3.05;58.19;102005.59;5034589;28;97802;-34
2022/03/03 03:11:05;;;;;;;6.45;3.28;;;;;;;3.02;58.11;102000.25;5016281;28;96647;-35
2022/03/03 03:13:30;;;;;;;6.00;3.40;;;;;;;2.97;58.07;102002.09;5033414;28;121424;-35
2022/03/03 03:15:56;;;;;;;6.22;3.35;;;;;;;2.95;58.26;102001.22;5033121;28;115690;-35
2022/03/03 03:18:21;;;;;;;3.90;2.75;;;;;;;2.96;58.24;101997.66;5033711;28;107790;-35
2022/03/03 03:20:50;;;;;;;6.72;3.88;;;;;;;2.95;58.05;102002.09;5034762;28;96824;-35
2022/03/03 03:23:17;;;;;;;8.90;3.70;;;;;;;2.92;58.05;101990.56;5015963;28;96683;-35
2022/03/03 03:25:45;;;;;;;5.05;3.70;;;;;;;2.91;58.49;101997.72;5015876;28;101014;-35
2022/03/03 03:28:12;;;;;;;4.53;2.50;;;;;;;2.90;59.13;102001.28;5015557;28;101382;-35
2022/03/03 03:30:39;;;;;;;4.72;3.70;;;;;;;2.93;59.69;102003.94;4998960;28;96843;-35
2022/03/03 03:33:05;;;;;;;11.10;3.97;;;;;;;2.91;59.23;101999.50;5016143;28;96964;-35
2022/03/03 03:35:30;;;;;;;6.80;4.00;;;;;;;2.84;58.66;101996.00;5015727;28;100879;-35
2022/03/03 03:37:56;;;;;;;5.57;3.35;;;;;;;2.82;59.06;102000.50;5034283;28;97284;-35
2022/03/03 03:40:21;;;;;;;6.88;3.15;;;;;;;2.83;59.34;101996.00;5033669;28;96490;-35
2022/03/03 03:42:46;;;;;;;5.28;2.83;;;;;;;2.81;58.67;101998.69;5034058;28;96750;-35
2022/03/03 03:45:12;;;;;;;6.97;3.33;;;;;;;2.76;59.67;101995.19;5033535;28;99201;-35
2022/03/03 03:47:38;;;;;;;7.95;3.90;;;;;;;2.73;59.06;101979.19;5033666;28;97373;-35
2022/03/03 03:50:08;;;;;;;4.70;3.53;;;;;;;2.80;59.05;101993.38;5015502;28;96589;-35
2022/03/03 03:52:35;;;;;;;5.07;4.10;;;;;;;2.73;59.20;101984.53;5033728;28;96811;-35
2022/03/03 03:55:00;;;;;;;6.13;3.72;;;;;;;2.75;59.78;101988.06;5015385;28;101402;-35
2022/03/03 03:57:26;;;;;;;5.10;3.13;;;;;;;2.67;59.81;101972.13;5033176;27;97867;-35
2022/03/03 03:59:51;;;;;;;5.90;3.33;;;;;;;2.71;60.03;101984.53;5033573;28;96570;-35
2022/03/03 04:02:23;;;;;;;4.85;3.35;;;;;;;2.74;60.35;101987.19;5015144;28;96848;-35
2022/03/03 04:04:48;;;;;;;4.65;3.33;;;;;;;2.69;59.94;101991.72;5032735;28;106061;-35
2022/03/03 04:07:13;;;;;;;3.28;2.15;;;;;;;2.70;59.72;101988.13;5048172;27;99175;-35
2022/03/03 04:09:39;;;;;;;5.38;3.10;;;;;;;2.66;59.82;101983.69;5053758;27;99935;-35
2022/03/03 04:12:04;;;;;;;6.88;3.63;;;;;;;2.66;60.12;101978.34;5053874;27;100358;-35
2022/03/03 04:14:30;;;;;;;6.45;2.58;;;;;;;2.65;59.83;101978.38;5053339;27;98331;-35
2022/03/03 04:16:56;;;;;;;5.07;2.63;;;;;;;2.65;60.47;101978.38;5053783;27;97754;-35
2022/03/03 04:19:21;;;;;;;3.05;2.03;;;;;;;2.61;60.22;101973.97;5053726;27;96550;-35
2022/03/03 04:21:46;;;;;;;7.30;2.60;;;;;;;2.59;60.12;101973.09;5053046;27;121488;-35
2022/03/03 04:24:12;;;;;;;7.05;2.60;;;;;;;2.55;60.02;101977.56;5053632;27;101058;-35
2022/03/03 04:26:37;;;;;;;2.67;2.30;;;;;;;2.57;59.90;101985.59;5053351;27;99273;-35
2022/03/03 04:29:03;;;;;;;7.70;3.00;;;;;;;2.56;60.64;101990.06;5034168;27;97500;-35
2022/03/03 04:31:29;;;;;;;6.13;3.08;;;;;;;2.53;60.45;101990.09;5035051;27;97181;-35
2022/03/03 04:33:55;;;;;;;5.57;2.58;;;;;;;2.53;60.28;101985.63;5053528;27;97731;-35
2022/03/03 04:36:21;;;;;;;3.83;3.03;;;;;;;2.45;60.67;101979.44;5034747;27;100976;-35
2022/03/03 04:38:48;;;;;;;3.28;2.60;;;;;;;2.54;60.80;101990.06;5053050;27;96786;-35
2022/03/03 04:41:13;;;;;;;4.95;3.97;;;;;;;2.49;60.47;101981.19;5053201;27;96704;-35
2022/03/03 04:43:39;;;;;;;5.53;3.53;;;;;;;2.49;60.39;101981.19;5053120;27;97375;-35
2022/03/03 04:46:04;;;;;;;3.88;3.08;;;;;;;2.43;61.43;101969.66;5053622;27;97772;-34
2022/03/03 04:48:30;;;;;;;3.17;2.22;;;;;;;2.38;61.44;101958.13;5034670;27;96613;-35
2022/03/03 04:50:57;;;;;;;4.28;2.67;;;;;;;2.42;61.43;101971.47;5053080;27;98948;-35
2022/03/03 04:53:23;;;;;;;9.07;3.30;;;;;;;2.37;60.87;101959.94;5034103;27;100957;-35
2022/03/03 04:55:48;;;;;;;9.52;2.95;;;;;;;2.34;60.95;101963.53;5052972;27;97809;-35
2022/03/03 04:58:13;;;;;;;6.10;3.60;;;;;;;2.36;61.32;101966.19;5051863;27;121821;-35
2022/03/03 05:00:39;;;;;;;5.70;3.60;;;;;;;2.34;61.54;101965.31;5051859;27;117438;-35
2022/03/03 05:03:04;;;;;;;4.68;2.65;;;;;;;2.30;61.46;101971.59;5053003;27;97653;-35
2022/03/03 05:05:29;;;;;;;6.70;2.97;;;;;;;2.24;61.67;101955.59;5052631;27;99278;-35
2022/03/03 05:07:55;;;;;;;3.50;2.60;;;;;;;2.26;61.60;101967.16;5052420;27;96785;-34
2022/03/03 05:10:20;;;;;;;7.97;4.00;;;;;;;2.25;61.16;101960.94;5053458;27;96738;-35
2022/03/03 05:12:46;;;;;;;3.60;2.58;;;;;;;2.25;61.47;101957.38;5052643;27;100155;-35
2022/03/03 05:15:11;;;;;;;3.83;2.22;;;;;;;2.12;62.08;101946.81;5034321;27;99106;-35
2022/03/03 05:17:36;;;;;;;5.82;4.03;;;;;;;2.23;61.70;101964.53;5052502;27;96542;-35
2022/03/03 05:20:02;;;;;;;4.28;2.85;;;;;;;2.23;61.06;101964.53;5051819;27;122387;-35
2022/03/03 05:22:28;;;;;;;3.65;1.95;;;;;;;2.08;62.24;101942.38;5034178;27;102165;-35
2022/03/03 05:24:53;;;;;;;6.57;3.88;;;;;;;2.19;62.14;101963.66;5034146;27;101108;-35
2022/03/03 05:27:19;;;;;;;9.00;3.50;;;;;;;2.20;61.82;101968.13;5034030;27;96704;-35
2022/03/03 05:29:44;;;;;;;5.03;3.20;;;;;;;2.15;61.41;101969.94;5052516;27;96814;-35
2022/03/03 05:32:10;;;;;;;6.50;3.67;;;;;;;2.08;61.58;101953.06;5034073;27;98840;-35
2022/03/03 05:34:35;;;;;;;6.75;4.63;;;;;;;2.13;61.89;101959.25;5052876;27;97823;-35
2022/03/03 05:37:00;;;;;;;7.57;3.28;;;;;;;2.08;61.71;101962.88;5033787;27;103594;-35
2022/03/03 05:39:27;;;;;;;4.07;3.35;;;;;;;2.08;62.36;101965.56;5052651;27;96730;-35
2022/03/03 05:41:55;;;;;;;6.90;3.25;;;;;;;2.09;62.30;101960.16;5033404;27;101400;-35
2022/03/03 05:44:21;;;;;;;12.43;2.80;;;;;;;2.04;62.03;101953.97;5033766;27;100614;-35
2022/03/03 05:46:47;;;;;;;7.63;3.50;;;;;;;2.04;62.02;101956.66;5033996;27;96593;-35
2022/03/03 05:49:12;;;;;;;4.45;3.70;;;;;;;2.06;62.04;101957.53;5052160;27;96891;-35
2022/03/03 05:51:38;;;;;;;3.53;2.72;;;;;;;2.07;62.53;101969.09;5052307;27;97998;-35
2022/03/03 05:54:04;;;;;;;6.50;3.88;;;;;;;2.05;62.23;101962.88;5052375;27;97892;-35
2022/03/03 05:56:32;;;;;;;3.33;1.92;;;;;;;2.03;62.63;101970.94;5033678;27;96490;-35
2022/03/03 05:59:01;;;;;;;5.93;2.78;;;;;;;1.95;62.58;101970.09;5034138;27;96864;-35
2022/03/03 06:01:28;;;;;;;3.53;2.63;;;;;;;1.96;62.52;101968.31;5033207;27;100839;-35
2022/03/03 06:03:57;;;;;;;6.32;3.53;;;;;;;1.92;62.65;101962.09;5033718;27;100766;-35
2022/03/03 06:06:25;;;;;;;3.53;2.67;;;;;;;1.93;62.36;101966.53;5032556;27;96766;-35
2022/03/03 06:09:00;;;;;;;3.88;2.95;;;;;;;1.94;61.67;101972.78;5033623;27;96742;-35
2022/03/03 06:11:27;;;;;;;5.28;3.67;;;;;;;1.83;62.85;101962.16;5033630;27;100698;-35
2022/03/03 06:13:57;;;;;;;6.47;4.22;;;;;;;1.86;62.03;101965.72;5033672;27;101160;-35
2022/03/03 06:16:24;;;;;;;7.40;4.18;;;;;;;1.83;62.72;101964.84;5033527;27;96878;-35
2022/03/03 06:18:50;;;;;;;5.55;3.92;;;;;;;1.83;62.74;101976.41;5052216;27;96798;-35
2022/03/03 06:21:16;;;;;;;4.72;3.30;;;;;;;1.80;62.63;101976.44;5055073;27;99070;-35
2022/03/03 06:23:42;;;;;;;5.47;2.75;;;;;;;1.80;63.14;101970.22;5037035;27;100874;-35
2022/03/03 06:26:10;;;;;;;7.88;3.92;;;;;;;1.83;62.17;101978.19;5055269;27;96705;-35
2022/03/03 06:28:35;;;;;;;5.30;3.90;;;;;;;1.75;62.40;101961.34;5036866;27;96833;-35
2022/03/03 06:31:03;;;;;;;2.75;2.15;;;;;;;1.75;62.65;101969.38;5054755;27;97909;-35
2022/03/03 06:33:29;;;;;;;3.72;2.25;;;;;;;1.81;62.58;101986.25;5054966;27;98823;-34
2022/03/03 06:35:55;;;;;;;9.23;4.43;;;;;;;1.72;62.32;101967.59;5055763;27;96518;-34
2022/03/03 06:38:21;;;;;;;3.70;2.70;;;;;;;1.68;62.99;101969.41;5055125;27;96854;-35
2022/03/03 06:40:46;;;;;;;5.40;3.05;;;;;;;1.71;62.19;101968.50;5055201;27;97972;-35
2022/03/03 06:43:11;;;;;;;3.33;2.15;;;;;;;1.66;62.69;101964.97;5054219;27;126809;-35
2022/03/03 06:45:37;;;;;;;5.82;4.07;;;;;;;1.72;62.77;101972.03;5055138;27;96792;-35
2022/03/03 06:48:04;;;;;;;7.00;3.40;;;;;;;1.70;62.68;101964.94;5054736;27;119686;-35
2022/03/03 06:50:30;;;;;;;6.38;4.22;;;;;;;1.72;62.68;101970.28;5036413;27;102414;-35
2022/03/03 06:52:56;;;;;;;5.95;2.17;;;;;;;1.66;63.16;101968.50;5036347;27;101350;-35
2022/03/03 06:55:24;;;;;;;4.80;2.65;;;;;;;1.75;63.09;101982.72;5036086;27;97021;-35
2022/03/03 06:57:54;;;;;;;3.50;2.70;;;;;;;1.72;62.44;101988.97;5036515;27;96882;-35
2022/03/03 07:00:22;;;;;;;14.50;3.45;;;;;;;1.77;62.69;101992.50;5036091;27;100949;-35
2022/03/03 07:02:48;;;;;;;5.93;2.15;;;;;;;1.73;62.60;101988.06;5036310;27;103497;-35
2022/03/03 07:05:17;;;;;;;2.53;2.22;;;;;;;1.73;62.96;101988.06;5036340;27;96662;-35
2022/03/03 07:07:52;;;;;;;5.82;3.30;;;;;;;1.76;63.11;101993.38;5035691;27;96784;-35
2022/03/03 07:10:24;;;;;;;5.20;3.10;;;;;;;1.79;62.72;101993.38;5054495;27;97930;-35
2022/03/03 07:12:55;;;;;;;6.03;2.85;;;;;;;1.79;63.18;101997.81;5054804;27;99217;-35
2022/03/03 07:15:25;;;;;;;8.48;3.38;;;;;;;1.82;63.03;101990.69;5019694;27;96696;-35
2022/03/03 07:17:53;;;;;;;1.58;0.90;;;;;;;1.76;63.59;101985.38;5054755;27;96775;-35
2022/03/03 07:20:40;;;;;;;3.13;2.00;;;;;;;1.83;62.87;101999.56;5035677;27;100964;-35
2022/03/03 07:23:36;;;;;;;7.25;3.85;;;;;;;1.87;62.67;102004.88;5054258;27;98859;-35
2022/03/03 07:26:04;;;;;;;3.10;1.75;;;;;;;1.90;62.81;101999.50;5019574;27;96876;-35
2022/03/03 07:28:30;;;;;;;18.75;4.65;;;;;;;1.95;62.88;101998.59;5054373;27;96786;-35
2022/03/03 07:30:59;;;;;;;1.50;1.40;;;;;;;1.95;62.00;101998.59;5034500;27;100864;-35
2022/03/03 07:33:46;;;;;;;2.70;1.52;;;;;;;2.02;62.60;102003.88;5035845;27;100564;-35
2022/03/03 07:36:18;;;;;;;3.75;2.05;;;;;;;2.07;62.34;101988.72;5054353;27;96683;-35
2022/03/03 07:38:50;;;;;;;2.45;2.25;;;;;;;2.22;61.89;101997.50;5054463;27;96725;-35
2022/03/03 07:41:16;;;;;;;3.28;2.53;;;;;;;2.40;61.40;101997.31;5054369;27;98075;-34
2022/03/03 07:43:41;;;;;;;11.80;3.67;;;;;;;2.40;61.72;101983.97;5035620;27;101152;-35
2022/03/03 07:46:07;;;;;;;18.00;3.10;;;;;;;2.54;61.30;101998.09;5053544;27;96442;-35
2022/03/03 07:48:34;;;;;;;3.78;2.90;;;;;;;2.60;60.68;101991.81;5035785;27;96960;-35
2022/03/03 07:51:01;;;;;;;2.65;2.17;;;;;;;2.63;60.67;101982.88;5035553;27;100739;-35
2022/03/03 07:53:27;;;;;;;5.28;3.55;;;;;;;2.76;60.95;101998.78;5035635;27;101009;-34
2022/03/03 07:55:59;;;;;;;2.08;1.60;;;;;;;2.85;60.45;101997.75;5053430;27;113200;-35
2022/03/03 07:58:29;;;;;;;3.70;2.60;;;;;;;2.96;60.46;101994.97;5035862;27;96658;-35
2022/03/03 08:00:59;;;;;;;8.60;3.47;;;;;;;3.07;60.62;102003.75;5018403;27;101188;-35
2022/03/03 08:03:25;;;;;;;4.15;2.25;;;;;;;3.03;59.93;101985.97;5054211;27;98875;-35
2022/03/03 08:05:54;;;;;;;3.58;1.77;;;;;;;3.14;59.74;102001.91;5053660;27;96786;-35
2022/03/03 08:08:24;;;;;;;5.53;3.08;;;;;;;3.20;59.75;101983.09;5053982;27;96644;-35
2022/03/03 08:10:55;;;;;;;10.15;4.45;;;;;;;3.32;59.33;101988.28;5034731;27;101244;-35
2022/03/03 08:13:21;;;;;;;7.50;3.78;;;;;;;3.42;59.52;101988.16;5035282;27;100776;-35
2022/03/03 08:15:46;;;;;;;4.00;2.58;;;;;;;3.43;59.35;101995.28;5035827;27;96513;-35
2022/03/03 08:18:12;;;;;;;5.88;2.63;;;;;;;3.50;58.91;102011.25;5053659;27;96456;-35
2022/03/03 08:20:39;;;;;;;7.53;4.63;;;;;;;3.54;59.05;101996.91;5035163;27;100805;-35
2022/03/03 08:23:06;;;;;;;5.22;3.13;;;;;;;3.52;58.39;101990.69;5053625;27;97880;-35
2022/03/03 08:25:33;;;;;;;4.47;2.47;;;;;;;3.52;58.97;101995.16;5035235;27;96679;-34
2022/03/03 08:27:59;;;;;;;4.25;2.30;;;;;;;3.54;58.38;101991.56;5035424;27;96917;-35
2022/03/03 08:30:25;;;;;;;4.13;2.65;;;;;;;3.67;58.80;102005.69;5053197;27;98078;-35
2022/03/03 08:33:01;;;;;;;3.30;1.90;;;;;;;3.66;58.44;101998.53;5053180;27;97867;-35
2022/03/03 08:35:36;;;;;;;3.10;2.60;;;;;;;3.68;58.14;102004.75;5034686;27;96932;-35
2022/03/03 08:38:24;;;;;;;13.60;5.70;;;;;;;3.70;57.72;101994.91;5034934;27;97084;-35
2022/03/03 08:40:51;;;;;;;2.80;1.50;;;;;;;3.83;57.98;102004.50;5034685;27;103063;-35
2022/03/03 08:43:20;;;;;;;5.85;3.63;;;;;;;3.82;57.69;101997.41;5033932;27;101022;-35
2022/03/03 08:45:48;;;;;;;6.03;3.85;;;;;;;3.89;57.45;102005.38;5034871;27;96720;-35
2022/03/03 08:48:15;;;;;;;2.80;2.25;;;;;;;3.94;57.43;102009.72;5034817;27;96849;-35
2022/03/03 08:50:42;;;;;;;8.10;3.75;;;;;;;3.98;57.13;102015.91;5053040;27;97968;-35
2022/03/03 08:53:08;;;;;;;4.32;2.35;;;;;;;4.06;57.32;102010.47;5035060;27;100662;-35
2022/03/03 08:55:35;;;;;;;6.38;3.33;;;;;;;4.14;57.11;102012.09;5034697;27;96510;-35
2022/03/03 08:58:00;;;;;;;5.90;2.17;;;;;;;4.12;56.65;102005.84;5052949;27;96870;-35
2022/03/03 09:00:27;;;;;;;6.70;3.10;;;;;;;4.11;56.46;102006.78;5052223;27;97989;-35
2022/03/03 09:02:53;;;;;;;3.17;2.08;;;;;;;4.22;57.11;102010.19;5034461;27;100761;-35
2022/03/03 09:05:25;;;;;;;5.53;2.90;;;;;;;4.25;56.73;102010.13;5034568;27;96494;-35
2022/03/03 09:07:50;;;;;;;4.75;2.08;;;;;;;4.29;56.86;102004.69;5052884;27;96759;-35
2022/03/03 09:10:16;;;;;;;3.22;2.47;;;;;;;4.39;56.86;102017.94;5052808;27;97889;-35
2022/03/03 09:12:43;;;;;;;4.28;2.30;;;;;;;4.36;56.51;101998.31;5034258;27;101742;-35
2022/03/03 09:15:09;;;;;;;11.82;3.58;;;;;;;4.50;56.88;102004.31;5034485;27;96566;-34
2022/03/03 09:17:35;;;;;;;2.80;2.08;;;;;;;4.61;57.34;102007.72;5018150;27;96792;-35
2022/03/03 09:20:05;;;;;;;4.82;2.33;;;;;;;4.68;56.89;102004.00;5052761;27;98075;-35
2022/03/03 09:22:31;;;;;;;2.85;2.17;;;;;;;4.80;56.34;102012.75;5052837;27;97810;-35
2022/03/03 09:24:56;;;;;;;5.57;2.40;;;;;;;4.87;55.80;102003.66;5052203;27;96732;-35
2022/03/03 09:27:22;;;;;;;2.13;1.15;;;;;;;4.98;55.80;102004.34;5052558;27;96856;-35
2022/03/03 09:29:48;;;;;;;4.57;2.47;;;;;;;5.06;55.61;102004.19;5052128;27;98915;-34
2022/03/03 09:32:13;;;;;;;5.60;3.03;;;;;;;5.24;55.83;102000.22;5052572;27;97767;-35
2022/03/03 09:34:39;;;;;;;5.13;3.10;;;;;;;5.39;54.87;102001.72;5052531;27;102729;-34
2022/03/03 09:37:05;;;;;;;9.30;3.17;;;;;;;5.58;54.62;101996.81;5034291;27;96797;-35
2022/03/03 09:39:30;;;;;;;7.20;4.35;;;;;;;5.72;54.72;101995.59;5052217;27;97429;-35
2022/03/03 09:41:55;;;;;;;3.58;1.88;;;;;;;5.83;53.47;101981.00;5052655;27;99461;-35
2022/03/03 09:44:22;;;;;;;8.15;3.15;;;;;;;6.06;53.21;101988.56;5052679;27;96449;-35
2022/03/03 09:46:48;;;;;;;5.65;3.03;;;;;;;6.28;53.66;102000.56;5034000;27;96773;-35
2022/03/03 09:49:13;;;;;;;10.32;2.90;;;;;;;6.46;53.14;101990.25;5051720;27;97993;-35
2022/03/03 09:51:39;;;;;;;6.95;3.45;;;;;;;6.71;52.77;101988.66;5033774;27;99816;-34
2022/03/03 09:54:08;;;;;;;5.03;2.42;;;;;;;6.96;51.24;101993.38;5052268;27;97263;-35
2022/03/03 09:56:34;;;;;;;7.75;3.20;;;;;;;7.22;51.12;101990.84;5037733;27;96769;-35
2022/03/03 09:58:59;;;;;;;4.55;2.75;;;;;;;7.43;49.49;101983.03;5037280;27;100613;-35
2022/03/03 10:01:31;;;;;;;6.05;3.70;;;;;;;7.75;47.97;101976.66;5036927;27;101605;-35
2022/03/03 10:04:22;;;;;;;6.03;3.45;;;;;;;8.01;47.03;101983.91;5037530;27;96661;-35
2022/03/03 10:06:47;;;;;;;8.48;3.38;;;;;;;8.08;48.43;101976.50;5055845;27;96707;-34
2022/03/03 10:09:13;;;;;;;11.13;3.53;;;;;;;8.32;47.69;101979.28;5037535;27;97947;-35
2022/03/03 10:11:48;;;;;;;4.15;2.10;;;;;;;8.44;45.05;101987.91;5055302;27;99206;-35
2022/03/03 10:14:34;;;;;;;5.53;3.25;;;;;;;8.56;48.30;101977.63;5055009;27;99993;-35
2022/03/03 10:17:00;;;;;;;6.05;3.20;;;;;;;8.77;47.80;101982.25;5054841;27;96824;-35
2022/03/03 10:19:25;;;;;;;4.30;2.80;;;;;;;9.05;46.40;101971.31;5037045;27;101017;-35
2022/03/03 10:21:51;;;;;;;12.90;3.53;;;;;;;9.27;46.01;101987.63;5055608;27;97769;-35
2022/03/03 10:24:21;;;;;;;10.32;4.90;;;;;;;9.31;43.92;101988.38;5055464;27;96699;-34
2022/03/03 10:26:54;;;;;;;4.47;2.30;;;;;;;9.30;44.06;101976.69;5055424;27;96603;-34
2022/03/03 10:29:21;;;;;;;8.98;4.00;;;;;;;9.44;44.66;101972.56;5055160;27;97460;-35
2022/03/03 10:31:51;;;;;;;8.10;3.90;;;;;;;9.69;42.84;101978.78;5037134;27;101032;-35
2022/03/03 10:34:38;;;;;;;10.55;3.97;;;;;;;9.82;42.85;101983.69;5055638;27;96450;-35
2022/03/03 10:37:07;;;;;;;9.68;3.20;;;;;;;9.98;42.98;101974.00;5037106;27;96717;-34
2022/03/03 10:39:42;;;;;;;8.02;3.63;;;;;;;10.16;44.52;101956.13;5054572;27;98192;-34
2022/03/03 10:42:17;;;;;;;11.30;3.65;;;;;;;10.33;42.54;101978.00;5055049;27;97869;-35
2022/03/03 10:44:42;;;;;;;9.00;3.08;;;;;;;10.44;42.48;101976.63;5055082;27;96449;-35
2022/03/03 10:47:09;;;;;;;7.40;4.07;;;;;;;10.55;40.93;101979.78;5055364;27;96779;-34
2022/03/03 10:49:37;;;;;;;9.63;4.05;;;;;;;10.74;40.88;101977.16;5036570;27;101610;-34
2022/03/03 10:52:17;;;;;;;9.57;4.93;;;;;;;10.91;41.67;101977.25;5036475;27;101251;-34
2022/03/03 10:54:56;;;;;;;8.60;4.10;;;;;;;10.97;40.00;101977.00;5036743;27;96486;-34
2022/03/03 10:57:28;;;;;;;11.50;2.92;;;;;;;11.11;40.35;101970.06;5036933;27;96827;-35
2022/03/03 10:59:54;;;;;;;;;;;;;;;11.22;40.45;101962.31;5036891;27;100590;-35
2022/03/03 11:02:20;;;;;;;6.35;3.13;;;;;;;11.51;42.24;101946.50;5054721;27;97672;-35
2022/03/03 11:04:45;;;;;;;5.35;2.83;;;;;;;11.50;37.33;101950.19;5036147;27;96513;-35
2022/03/03 11:07:11;;;;;;;4.90;2.95;;;;;;;11.60;41.19;101949.66;5054104;27;96763;-34
2022/03/03 11:09:38;;;;;;;6.63;3.45;;;;;;;11.84;40.81;101957.56;5054599;27;97941;-34
2022/03/03 11:12:06;;;;;;;8.55;3.92;;;;;;;11.87;38.79;101942.03;5036063;27;100867;-34
2022/03/03 11:14:32;;;;;;;5.15;3.10;;;;;;;11.95;40.11;101959.78;5036450;27;96633;-35
2022/03/03 11:16:58;;;;;;;9.50;3.85;;;;;;;12.09;40.91;101965.41;5054955;27;96786;-34
2022/03/03 11:19:23;;;;;;;8.18;3.58;;;;;;;12.13;38.69;101942.56;5035967;27;100619;-35
2022/03/03 11:21:49;;;;;;;8.40;3.45;;;;;;;12.28;39.20;101954.50;5054954;27;97936;-34
2022/03/03 11:24:17;;;;;;;7.18;2.80;;;;;;;12.38;38.00;101941.31;5054746;27;96589;-35
2022/03/03 11:26:45;;;;;;;7.18;4.00;;;;;;;12.49;39.44;101939.81;5036435;27;96812;-34
2022/03/03 11:29:12;;;;;;;11.75;4.75;;;;;;;12.47;37.14;101952.59;5035110;27;101072;-35